Time;durP1;ratioP1;P1;durP2;ratioP2;P2;SDS_P1;SDS_P2;PMS_P1;PMS_P2;Temp;Humidity;BMP_temperature;BMP_pressure;BME280_temperature;BME280_humidity;BME280_pressure;Samples;Min_cycle;Max_cycle;Signal;HPM_P1;HPM_P2
2021/01/02 00:02:26;;;;;;;;;;;;;;;8.43;48.02;100816.13;6037019;23;97732;-79
2021/01/02 00:05:05;;;;;;;;;;;;;;;8.60;47.81;100815.72;6034600;23;96822;-79
2021/01/02 00:07:49;;;;;;;;;;;;;;;8.59;47.86;100817.47;6034796;23;98979;-79
2021/01/02 00:10:21;;;;;;;;;;;;;;;8.53;47.93;100822.03;6037258;23;98927;-80
2021/01/02 00:13:02;;;;;;;;;;;;;;;8.56;47.73;100821.94;6034525;23;96705;-78
2021/01/02 00:15:31;;;;;;;;;;;;;;;8.58;47.82;100821.03;6033819;23;96805;-78
2021/01/02 00:18:04;;;;;;;;;;;;;;;8.56;47.67;100814.03;6032675;23;98703;-79
2021/01/02 00:20:48;;;;;;;;;;;;;;;8.54;48.10;100821.13;6031923;23;99032;-79
2021/01/02 00:23:21;;;;;;;;;;;;;;;8.35;48.17;100816.31;6035694;23;96776;-78
2021/01/02 00:25:55;;;;;;;;;;;;;;;8.57;47.97;100823.69;6034599;23;96675;-80
2021/01/02 00:28:23;;;;;;;;;;;;;;;8.60;48.05;100823.63;6035962;23;101148;-80
2021/01/02 00:31:06;;;;;;;;;;;;;;;8.61;47.38;100815.66;6032284;23;99039;-80
2021/01/02 00:33:41;;;;;;;;;;;;;;;8.57;48.05;100821.06;6033700;23;96733;-79
2021/01/02 00:36:12;;;;;;;;;;;;;;;8.38;47.67;100821.53;6035820;23;96823;-80
2021/01/02 00:38:39;;;;;;;;;;;;;;;8.55;47.46;100825.47;6032915;23;98136;-79
2021/01/02 00:41:06;;;;;;;;;;;;;;;8.36;47.68;100823.31;6031938;23;99186;-79
2021/01/02 00:43:32;;;;;;;;;;;;;;;8.45;47.80;100826.63;6033213;23;96786;-78
2021/01/02 00:46:01;;;;;;;;;;;;;;;8.43;47.59;100823.16;6033854;23;97113;-80
2021/01/02 00:48:27;;;;;;;;;;;;;;;8.34;48.02;100816.34;6029949;23;101247;-81
2021/01/02 00:50:55;;;;;;;;;;;;;;;8.40;47.55;100827.59;6031389;23;100993;-79
2021/01/02 00:53:42;;;;;;;;;;;;;;;8.45;47.26;100824.00;6033846;23;96693;-79
2021/01/02 00:56:38;;;;;;;;;;;;;;;8.33;47.64;100831.31;6026176;23;96826;-79
2021/01/02 00:59:30;;;;;;;;;;;;;;;8.39;47.60;100831.16;5943204;23;98122;-79
2021/01/02 01:02:14;;;;;;;;;;;;;;;8.23;47.47;100824.50;6006721;23;99025;-79
2021/01/02 01:05:04;;;;;;;;;;;;;;;8.10;47.70;100830.09;6031680;23;97179;-78
2021/01/02 01:07:38;;;;;;;;;;;;;;;8.11;47.71;100830.06;6010170;23;96981;-79
2021/01/02 01:10:06;;;;;;;;;;;;;;;7.97;47.95;100837.41;6032488;23;98087;-80
2021/01/02 01:12:36;;;;;;;;;;;;;;;8.16;47.67;100832.59;6032295;23;98815;-79
2021/01/02 01:15:02;;;;;;;;;;;;;;;8.18;47.71;100830.78;6032263;23;96715;-79
2021/01/02 01:17:32;;;;;;;;;;;;;;;8.14;47.81;100834.41;6032677;23;96777;-78
2021/01/02 01:20:02;;;;;;;;;;;;;;;8.04;47.72;100831.13;6031571;23;101127;-78
2021/01/02 01:22:35;;;;;;;;;;;;;;;8.08;47.71;100829.25;6032610;23;102265;-79
2021/01/02 01:25:06;;;;;;;;;;;;;;;8.22;46.90;100828.03;6031021;23;96694;-79
2021/01/02 01:27:39;;;;;;;;;;;;;;;8.13;47.61;100830.91;6032279;23;96874;-79
2021/01/02 01:30:06;;;;;;;;;;;;;;;8.05;47.61;100835.47;6031749;23;97674;-80
2021/01/02 01:32:35;;;;;;;;;;;;;;;8.07;47.43;100833.69;6039082;23;98551;-79
2021/01/02 01:35:03;;;;;;;;;;;;;;;8.09;47.28;100837.13;6033219;23;97056;-80
2021/01/02 01:37:29;;;;;;;;;;;;;;;8.07;47.32;100831.06;6032573;23;96933;-81
2021/01/02 01:39:55;;;;;;;;;;;;;;;8.09;47.09;100831.88;6032104;23;98916;-79
2021/01/02 01:42:36;;;;;;;;;;;;;;;7.99;47.15;100838.25;6033632;23;97001;-78
2021/01/02 01:45:12;;;;;;;;;;;;;;;8.09;46.93;100839.75;6033204;23;96703;-79
2021/01/02 01:47:40;;;;;;;;;;;;;;;8.07;46.70;100838.94;6040433;23;96814;-79
2021/01/02 01:50:21;;;;;;;;;;;;;;;7.84;47.27;100844.72;6049067;23;98257;-79
2021/01/02 01:53:05;;;;;;;;;;;;;;;7.82;47.47;100838.63;6032696;23;98869;-79
2021/01/02 01:55:36;;;;;;;;;;;;;;;7.72;47.62;100844.16;6032325;23;96723;-80
2021/01/02 01:58:09;;;;;;;;;;;;;;;7.89;46.95;100853.38;6032905;23;96811;-80
2021/01/02 02:00:43;;;;;;;;;;;;;;;7.81;46.99;100844.78;6039963;23;99288;-79
2021/01/02 02:03:21;;;;;;;;;;;;;;;7.87;47.21;100843.81;6032735;23;98846;-81
2021/01/02 02:05:50;;;;;;;;;;;;;;;7.83;47.41;100856.16;6035471;23;96686;-79
2021/01/02 02:08:16;;;;;;;;;;;;;;;7.66;47.86;100846.91;6037110;23;96674;-80
2021/01/02 02:10:44;;;;;;;;;;;;;;;7.79;47.54;100854.50;6052322;23;100607;-79
2021/01/02 02:13:11;;;;;;;;;;;;;;;7.83;47.44;100843.00;6056687;23;98023;-79
2021/01/02 02:15:43;;;;;;;;;;;;;;;7.55;47.98;100850.63;6038967;23;96758;-79
2021/01/02 02:18:14;;;;;;;;;;;;;;;7.77;47.84;100844.91;6031951;23;96854;-79
2021/01/02 02:20:46;;;;;;;;;;;;;;;7.69;48.00;100846.81;6031119;23;97664;-80
2021/01/02 02:23:13;;;;;;;;;;;;;;;7.58;48.43;100849.69;6029625;23;98802;-80
2021/01/02 02:25:46;;;;;;;;;;;;;;;7.70;48.30;100848.56;6031257;23;96672;-79
2021/01/02 02:28:24;;;;;;;;;;;;;;;7.62;48.74;100843.47;6029932;23;96910;-80
2021/01/02 02:30:55;;;;;;;;;;;;;;;7.86;47.95;100845.56;6031084;23;99054;-79
2021/01/02 02:33:22;;;;;;;;;;;;;;;7.72;48.36;100841.50;6029069;23;98905;-79
2021/01/02 02:35:49;;;;;;;;;;;;;;;7.74;48.38;100851.13;6031166;23;97665;-79
2021/01/02 02:38:18;;;;;;;;;;;;;;;7.56;49.13;100846.22;6036060;23;96982;-79
2021/01/02 02:40:44;;;;;;;;;;;;;;;7.66;48.91;100852.16;6035028;23;99301;-79
2021/01/02 02:43:10;;;;;;;;;;;;;;;7.69;48.78;100846.81;6036384;23;98179;-78
2021/01/02 02:45:36;;;;;;;;;;;;;;;7.70;48.93;100853.81;6037458;23;97146;-78
2021/01/02 02:48:03;;;;;;;;;;;;;;;7.70;49.12;100859.94;6039251;23;96600;-79
2021/01/02 02:50:31;;;;;;;;;;;;;;;7.76;49.22;100858.94;6039030;23;98901;-79
2021/01/02 02:53:05;;;;;;;;;;;;;;;7.61;49.41;100863.63;6034590;23;97803;-77
2021/01/02 02:55:31;;;;;;;;;;;;;;;7.74;49.08;100868.66;6035176;23;96715;-79
2021/01/02 02:57:57;;;;;;;;;;;;;;;7.70;49.52;100864.34;6040288;23;96827;-78
2021/01/02 03:00:24;;;;;;;;;;;;;;;7.35;50.25;100873.84;6045362;23;99014;-78
2021/01/02 03:02:50;;;;;;;;;;;;;;;7.26;50.88;100874.03;6044221;23;98806;-78
2021/01/02 03:05:16;;;;;;;;;;;;;;;7.53;50.49;100873.47;6037964;23;97001;-79
2021/01/02 03:07:43;;;;;;;;;;;;;;;7.44;50.39;100873.66;6035150;23;96780;-78
2021/01/02 03:10:11;;;;;;;;;;;;;;;7.44;50.34;100873.66;6031888;23;99583;-79
2021/01/02 03:12:40;;;;;;;;;;;;;;;7.50;50.34;100884.03;6030962;23;99267;-78
2021/01/02 03:15:09;;;;;;;;;;;;;;;7.50;50.33;100876.16;6032152;23;96825;-79
2021/01/02 03:17:34;;;;;;;;;;;;;;;7.40;50.61;100879.88;6031599;23;96872;-79
2021/01/02 03:20:00;;;;;;;;;;;;;;;7.15;51.11;100886.53;6031450;23;99469;-78
2021/01/02 03:22:26;;;;;;;;;;;;;;;7.31;50.93;100887.06;6029837;23;98889;-78
2021/01/02 03:24:52;;;;;;;;;;;;;;;7.22;51.19;100891.59;6031223;23;96887;-77
2021/01/02 03:27:19;;;;;;;;;;;;;;;7.21;51.21;100889.03;6031608;23;96809;-79
2021/01/02 03:29:44;;;;;;;;;;;;;;;7.27;51.01;100890.69;6030999;23;99067;-78
2021/01/02 03:32:10;;;;;;;;;;;;;;;7.23;51.42;100889.84;6030926;23;98871;-79
2021/01/02 03:34:37;;;;;;;;;;;;;;;7.15;51.54;100894.41;6030931;23;96787;-79
2021/01/02 03:37:03;;;;;;;;;;;;;;;7.10;51.71;100891.84;6031305;23;96746;-79
2021/01/02 03:39:29;;;;;;;;;;;;;;;7.09;51.85;100905.00;6031495;23;97632;-79
2021/01/02 03:41:54;;;;;;;;;;;;;;;7.16;51.92;100902.25;6030618;23;98868;-79
2021/01/02 03:44:21;;;;;;;;;;;;;;;7.24;51.56;100907.34;6031032;23;96902;-79
2021/01/02 03:46:47;;;;;;;;;;;;;;;7.16;51.93;100911.88;6030316;23;96878;-80
2021/01/02 03:49:13;;;;;;;;;;;;;;;7.28;51.54;100909.06;6030141;23;99203;-80
2021/01/02 03:51:39;;;;;;;;;;;;;;;7.46;51.49;100913.06;6029069;23;98835;-79
2021/01/02 03:54:05;;;;;;;;;;;;;;;7.22;52.36;100915.25;6031291;23;97294;-78
2021/01/02 03:56:30;;;;;;;;;;;;;;;6.82;53.03;100913.41;6031099;23;96842;-78
2021/01/02 03:58:56;;;;;;;;;;;;;;;6.85;53.30;100921.22;6029865;23;98907;-79
2021/01/02 04:01:23;;;;;;;;;;;;;;;6.82;53.80;100930.03;6029448;23;99129;-78
2021/01/02 04:03:48;;;;;;;;;;;;;;;6.89;53.60;100926.41;6030806;23;97311;-78
2021/01/02 04:06:14;;;;;;;;;;;;;;;7.05;53.11;100933.13;6031763;23;97197;-78
2021/01/02 04:08:40;;;;;;;;;;;;;;;7.21;52.77;100928.47;6031819;23;99910;-79
2021/01/02 04:11:06;;;;;;;;;;;;;;;6.88;53.82;100927.31;6030574;23;99061;-78
2021/01/02 04:13:32;;;;;;;;;;;;;;;6.79;54.07;100925.69;6031808;23;96957;-78
2021/01/02 04:15:58;;;;;;;;;;;;;;;7.01;53.47;100922.69;6031851;23;96877;-78
2021/01/02 04:18:24;;;;;;;;;;;;;;;6.86;53.79;100926.47;6031278;23;98802;-78
2021/01/02 04:20:50;;;;;;;;;;;;;;;7.04;53.40;100925.25;6031400;23;98836;-77
2021/01/02 04:23:16;;;;;;;;;;;;;;;7.10;53.34;100925.13;6031738;23;96770;-78
2021/01/02 04:25:42;;;;;;;;;;;;;;;6.94;53.39;100926.34;6032057;23;96673;-78
2021/01/02 04:28:08;;;;;;;;;;;;;;;6.93;53.16;100924.59;6031943;23;98878;-78
2021/01/02 04:30:34;;;;;;;;;;;;;;;7.16;52.55;100927.66;6031522;23;98344;-78
2021/01/02 04:33:00;;;;;;;;;;;;;;;7.15;52.44;100918.91;6032786;23;96843;-78
2021/01/02 04:35:27;;;;;;;;;;;;;;;7.24;52.10;100928.38;6031285;23;96873;-78
2021/01/02 04:37:52;;;;;;;;;;;;;;;7.17;52.42;100934.66;6031320;23;98879;-78
2021/01/02 04:40:18;;;;;;;;;;;;;;;7.23;51.99;100937.16;6031977;23;98866;-78
2021/01/02 04:42:44;;;;;;;;;;;;;;;6.96;52.23;100937.66;6031665;23;96982;-78
2021/01/02 04:45:11;;;;;;;;;;;;;;;7.06;52.63;100939.25;6032596;23;96905;-78
2021/01/02 04:47:37;;;;;;;;;;;;;;;7.01;51.96;100941.97;6030920;23;99108;-78
2021/01/02 04:50:04;;;;;;;;;;;;;;;7.13;51.54;100936.47;6033189;23;99229;-78
2021/01/02 04:52:30;;;;;;;;;;;;;;;7.15;51.60;100933.84;6051648;23;96738;-79
2021/01/02 04:54:57;;;;;;;;;;;;;;;6.86;52.03;100931.72;6038483;23;96750;-78
2021/01/02 04:57:23;;;;;;;;;;;;;;;7.05;51.64;100934.88;6032244;23;100226;-78
2021/01/02 04:59:49;;;;;;;;;;;;;;;6.91;51.66;100929.00;6031287;23;98816;-78
2021/01/02 05:02:17;;;;;;;;;;;;;;;7.06;51.51;100934.84;6031231;23;96940;-79
2021/01/02 05:04:44;;;;;;;;;;;;;;;6.78;52.20;100934.47;6031831;23;96846;-78
2021/01/02 05:07:10;;;;;;;;;;;;;;;6.89;52.07;100936.94;6031057;23;101419;-79
2021/01/02 05:09:37;;;;;;;;;;;;;;;7.00;51.45;100934.09;6031687;23;98883;-78
2021/01/02 05:12:03;;;;;;;;;;;;;;;7.20;51.09;100932.84;6031826;23;96851;-79
2021/01/02 05:14:29;;;;;;;;;;;;;;;7.15;50.67;100932.03;6031859;23;96839;-79
2021/01/02 05:16:54;;;;;;;;;;;;;;;7.27;50.53;100938.84;6031467;23;98918;-79
2021/01/02 05:19:20;;;;;;;;;;;;;;;7.08;51.13;100943.59;6031036;23;99370;-79
2021/01/02 05:21:47;;;;;;;;;;;;;;;7.02;51.19;100945.47;6032255;23;96665;-78
2021/01/02 05:24:13;;;;;;;;;;;;;;;7.06;51.19;100941.88;6031008;23;96819;-78
2021/01/02 05:26:41;;;;;;;;;;;;;;;7.32;50.37;100939.63;6031297;23;99841;-78
2021/01/02 05:29:07;;;;;;;;;;;;;;;7.39;50.03;100943.88;6031092;23;98810;-79
2021/01/02 05:31:33;;;;;;;;;;;;;;;7.17;50.66;100947.78;6031550;23;96980;-78
2021/01/02 05:34:03;;;;;;;;;;;;;;;7.43;50.06;100955.19;6031992;23;96811;-79
2021/01/02 05:36:28;;;;;;;;;;;;;;;7.24;50.25;100953.81;6029809;23;99342;-79
2021/01/02 05:38:54;;;;;;;;;;;;;;;7.34;49.84;100950.13;6031643;23;98697;-79
2021/01/02 05:41:20;;;;;;;;;;;;;;;7.38;49.83;100955.28;6031940;23;96693;-76
2021/01/02 05:43:47;;;;;;;;;;;;;;;7.41;50.09;100963.13;6031558;23;96750;-78
2021/01/02 05:46:13;;;;;;;;;;;;;;;7.47;49.81;100967.41;6031468;23;98888;-78
2021/01/02 05:48:38;;;;;;;;;;;;;;;7.34;50.18;100972.03;6031168;23;99173;-78
2021/01/02 05:51:07;;;;;;;;;;;;;;;7.41;49.52;100972.78;6032887;23;96731;-78
2021/01/02 05:53:33;;;;;;;;;;;;;;;7.33;49.96;100972.91;6031550;23;96825;-78
2021/01/02 05:56:03;;;;;;;;;;;;;;;7.39;49.54;100974.56;6032784;23;101790;-77
2021/01/02 05:58:30;;;;;;;;;;;;;;;7.43;49.64;100970.97;6030155;23;99702;-77
2021/01/02 06:01:03;;;;;;;;;;;;;;;7.20;50.22;100968.78;6031619;23;96767;-78
2021/01/02 06:03:29;;;;;;;;;;;;;;;7.36;49.75;100971.97;6031536;23;96887;-78
2021/01/02 06:05:58;;;;;;;;;;;;;;;7.25;50.10;100972.19;6031243;23;98970;-79
2021/01/02 06:08:31;;;;;;;;;;;;;;;7.55;49.48;100971.59;6030850;23;98998;-78
2021/01/02 06:10:59;;;;;;;;;;;;;;;7.31;49.51;100969.44;6031533;23;96810;-79
2021/01/02 06:13:26;;;;;;;;;;;;;;;7.15;50.06;100973.25;6029760;23;96696;-78
2021/01/02 06:15:53;;;;;;;;;;;;;;;7.35;49.13;100976.34;6031556;23;98924;-78
2021/01/02 06:18:20;;;;;;;;;;;;;;;7.21;49.84;100975.78;6030846;23;98936;-78
2021/01/02 06:20:45;;;;;;;;;;;;;;;7.34;49.72;100982.53;6031614;23;96945;-79
2021/01/02 06:23:13;;;;;;;;;;;;;;;7.26;49.70;100984.44;6031723;23;96794;-78
2021/01/02 06:25:39;;;;;;;;;;;;;;;7.03;50.69;100983.94;6031433;23;99364;-79
2021/01/02 06:28:05;;;;;;;;;;;;;;;7.14;50.28;100989.91;6032308;23;99186;-79
2021/01/02 06:30:31;;;;;;;;;;;;;;;7.19;50.00;100985.44;6031496;23;96722;-80
2021/01/02 06:32:57;;;;;;;;;;;;;;;7.33;49.69;100993.06;6031400;23;96912;-78
2021/01/02 06:35:24;;;;;;;;;;;;;;;7.21;49.94;100996.78;6031800;23;98919;-78
2021/01/02 06:38:06;;;;;;;;;;;;;;;7.30;49.99;100993.97;6036683;23;97760;-79
2021/01/02 06:40:36;;;;;;;;;;;;;;;7.14;50.40;100995.16;6036320;23;96802;-77
2021/01/02 06:43:03;;;;;;;;;;;;;;;7.16;50.27;100998.59;6041828;23;96844;-78
2021/01/02 06:45:47;;;;;;;;;;;;;;;6.89;50.74;101001.72;6030703;23;99303;-77
2021/01/02 06:48:31;;;;;;;;;;;;;;;6.95;50.75;101013.00;6031112;23;98921;-78
2021/01/02 06:50:58;;;;;;;;;;;;;;;7.26;49.90;101010.72;6031889;23;96707;-78
2021/01/02 06:53:25;;;;;;;;;;;;;;;7.11;50.11;101008.34;6031726;23;97004;-78
2021/01/02 06:55:56;;;;;;;;;;;;;;;7.22;49.83;101015.13;6035443;23;99218;-79
2021/01/02 06:58:22;;;;;;;;;;;;;;;7.17;49.97;101014.38;6039169;23;98821;-77
2021/01/02 07:00:48;;;;;;;;;;;;;;;7.12;50.00;101023.22;6041130;23;96565;-78
2021/01/02 07:03:29;;;;;;;;;;;;;;;7.30;49.95;101024.66;6045185;23;96845;-77
2021/01/02 07:05:54;;;;;;;;;;;;;;;7.20;49.88;101024.84;6043819;23;99082;-79
2021/01/02 07:08:40;;;;;;;;;;;;;;;7.30;49.53;101016.78;6036558;23;98968;-78
2021/01/02 07:11:26;;;;;;;;;;;;;;;7.35;49.73;101026.31;6036071;23;97063;-77
2021/01/02 07:14:07;;;;;;;;;;;;;;;7.28;49.79;101026.47;6031918;23;97272;-79
2021/01/02 07:16:34;;;;;;;;;;;;;;;7.40;49.70;101026.25;6031723;23;99040;-80
2021/01/02 07:19:00;;;;;;;;;;;;;;;7.28;49.91;101031.72;6036313;23;98966;-78
2021/01/02 07:21:33;;;;;;;;;;;;;;;7.32;49.67;101036.88;6038168;23;96841;-80
2021/01/02 07:24:13;;;;;;;;;;;;;;;7.20;50.33;101040.59;6036992;23;97100;-81
2021/01/02 07:26:40;;;;;;;;;;;;;;;7.47;49.80;101043.66;6034100;23;100001;-81
2021/01/02 07:29:06;;;;;;;;;;;;;;;7.53;49.87;101043.53;6035752;23;97786;-82
2021/01/02 07:31:32;;;;;;;;;;;;;;;7.00;50.75;101047.06;6037888;23;96729;-82
2021/01/02 07:33:58;;;;;;;;;;;;;;;7.14;50.45;101055.59;6038150;23;96721;-81
2021/01/02 07:36:24;;;;;;;;;;;;;;;7.18;50.60;101059.91;6038154;23;99315;-80
2021/01/02 07:38:50;;;;;;;;;;;;;;;6.88;51.51;101063.91;6036060;23;101004;-80
2021/01/02 07:41:18;;;;;;;;;;;;;;;6.88;51.63;101066.53;6041115;23;96651;-80
2021/01/02 07:43:45;;;;;;;;;;;;;;;6.75;51.58;101076.34;6044390;23;96795;-80
2021/01/02 07:46:10;;;;;;;;;;;;;;;6.81;51.57;101070.13;6041075;23;98075;-81
2021/01/02 07:48:36;;;;;;;;;;;;;;;6.94;51.02;101083.97;6039402;23;97850;-80
2021/01/02 07:51:13;;;;;;;;;;;;;;;6.63;52.09;101092.25;6039791;23;96585;-81
2021/01/02 07:53:39;;;;;;;;;;;;;;;6.66;51.92;101092.22;6045833;23;96609;-82
2021/01/02 07:56:05;;;;;;;;;;;;;;;7.14;50.68;101093.28;6046991;23;98793;-81
2021/01/02 07:58:31;;;;;;;;;;;;;;;6.96;51.32;101096.16;6048448;23;98161;-81
2021/01/02 08:01:08;;;;;;;;;;;;;;;7.06;51.09;101095.16;6051676;23;96494;-80
2021/01/02 08:03:35;;;;;;;;;;;;;;;6.95;50.93;101099.72;6050403;23;96750;-80
2021/01/02 08:06:07;;;;;;;;;;;;;;;7.30;49.94;101093.00;6048003;23;99217;-79
2021/01/02 08:08:33;;;;;;;;;;;;;;;7.03;50.72;101102.19;6048321;23;98024;-80
2021/01/02 08:10:58;;;;;;;;;;;;;;;6.76;51.66;101104.34;6037784;23;96782;-80
2021/01/02 08:13:24;;;;;;;;;;;;;;;6.89;51.08;101101.56;6037291;23;96919;-81
2021/01/02 08:15:52;;;;;;;;;;;;;;;6.67;51.86;101109.72;6037018;23;99062;-81
2021/01/02 08:18:18;;;;;;;;;;;;;;;6.81;51.32;101106.91;6036626;23;99125;-80
2021/01/02 08:20:44;;;;;;;;;;;;;;;6.89;50.95;101112.94;6037233;23;96946;-80
2021/01/02 08:23:11;;;;;;;;;;;;;;;6.96;50.88;101119.81;6034733;23;96847;-80
2021/01/02 08:25:37;;;;;;;;;;;;;;;6.97;50.76;101118.91;6033609;23;99214;-80
2021/01/02 08:28:03;;;;;;;;;;;;;;;7.00;50.51;101121.50;6034024;23;99145;-80
2021/01/02 08:30:29;;;;;;;;;;;;;;;7.03;50.61;101117.97;6045745;23;96768;-80
2021/01/02 08:32:56;;;;;;;;;;;;;;;7.11;50.35;101121.34;6040311;23;96734;-80
2021/01/02 08:35:26;;;;;;;;;;;;;;;7.22;50.21;101118.56;6034210;23;98825;-80
2021/01/02 08:37:51;;;;;;;;;;;;;;;7.11;50.90;101123.97;6031827;23;98946;-79
2021/01/02 08:40:19;;;;;;;;;;;;;;;6.94;51.33;101123.38;6035436;23;97380;-82
2021/01/02 08:42:46;;;;;;;;;;;;;;;6.68;52.01;101132.47;6039643;23;96747;-83
2021/01/02 08:45:15;;;;;;;;;;;;;;;6.98;51.90;101130.31;6037001;23;98986;-83
2021/01/02 08:47:41;;;;;;;;;;;;;;;6.84;52.43;101137.50;6035883;23;98147;-82
2021/01/02 08:50:09;;;;;;;;;;;;;;;7.16;51.65;101137.91;6036629;23;96673;-82
2021/01/02 08:52:36;;;;;;;;;;;;;;;7.20;51.42;101126.47;6036346;23;96676;-81
2021/01/02 08:55:09;;;;;;;;;;;;;;;7.09;52.06;101133.63;6035044;23;101610;-84
2021/01/02 08:57:36;;;;;;;;;;;;;;;7.16;51.66;101140.53;6033796;23;98969;-81
2021/01/02 09:00:09;;;;;;;;;;;;;;;7.03;51.85;101139.84;6036158;23;97048;-82
2021/01/02 09:02:35;;;;;;;;;;;;;;;7.05;51.87;101140.69;6033808;23;96949;-81
2021/01/02 09:05:02;;;;;;;;;;;;;;;7.09;52.21;101138.88;6032082;23;98731;-83
2021/01/02 09:07:27;;;;;;;;;;;;;;;6.82;53.02;101140.19;6032314;23;98819;-82
2021/01/02 09:10:08;;;;;;;;;;;;;;;7.24;51.73;101143.91;6032109;23;96891;-81
2021/01/02 09:12:35;;;;;;;;;;;;;;;7.20;51.71;101137.84;6031653;23;96840;-82
2021/01/02 09:15:01;;;;;;;;;;;;;;;7.43;51.21;101142.72;6034041;23;97748;-82
2021/01/02 09:17:26;;;;;;;;;;;;;;;7.45;50.93;101143.59;6031645;23;97756;-83
2021/01/02 09:19:52;;;;;;;;;;;;;;;7.44;51.33;101147.09;6032098;23;96857;-82
2021/01/02 09:22:18;;;;;;;;;;;;;;;7.68;51.29;101150.22;6032787;23;96839;-82
2021/01/02 09:24:44;;;;;;;;;;;;;;;7.91;50.17;101150.69;6032913;23;97653;-82
2021/01/02 09:27:09;;;;;;;;;;;;;;;7.67;50.56;101152.00;6031085;23;98955;-82
2021/01/02 09:29:38;;;;;;;;;;;;;;;7.84;49.96;101156.94;6031895;23;97123;-83
2021/01/02 09:32:09;;;;;;;;;;;;;;;7.78;50.20;101160.56;6032870;23;96781;-83
2021/01/02 09:34:35;;;;;;;;;;;;;;;7.63;50.73;101162.56;6033790;23;99614;-83
2021/01/02 09:37:01;;;;;;;;;;;;;;;7.66;50.86;101170.41;6033808;23;98935;-83
2021/01/02 09:39:28;;;;;;;;;;;;;;;7.89;50.24;101170.88;6033474;23;96657;-83
2021/01/02 09:41:54;;;;;;;;;;;;;;;7.97;49.89;101158.47;6032357;23;96924;-81
2021/01/02 09:44:20;;;;;;;;;;;;;;;8.34;49.34;101163.91;6033803;23;102029;-81
2021/01/02 09:46:49;;;;;;;;;;;;;;;8.22;49.40;101172.03;6033301;23;97760;-82
2021/01/02 09:49:15;;;;;;;;;;;;;;;8.15;49.34;101168.63;6034481;23;97031;-82
2021/01/02 09:51:41;;;;;;;;;;;;;;;8.09;49.84;101167.88;6033760;23;96974;-82
2021/01/02 09:54:06;;;;;;;;;;;;;;;7.98;50.45;101168.09;6035014;23;97597;-83
2021/01/02 09:56:33;;;;;;;;;;;;;;;7.83;50.53;101165.72;6034132;23;99418;-78
2021/01/02 09:59:00;;;;;;;;;;;;;;;7.94;50.25;101169.06;6036010;23;96728;-80
2021/01/02 10:01:25;;;;;;;;;;;;;;;7.96;50.34;101161.97;6043478;23;96806;-84
2021/01/02 10:03:52;;;;;;;;;;;;;;;7.73;50.63;101172.06;6040302;23;98443;-83
2021/01/02 10:06:18;;;;;;;;;;;;;;;7.78;50.64;101168.44;6033468;23;98347;-81
2021/01/02 10:08:44;;;;;;;;;;;;;;;7.80;50.70;101171.06;6033854;23;96570;-81
2021/01/02 10:11:10;;;;;;;;;;;;;;;7.65;51.20;101171.31;6038901;23;96679;-83
2021/01/02 10:13:36;;;;;;;;;;;;;;;7.84;50.81;101167.47;6039467;23;99278;-81
2021/01/02 10:16:02;;;;;;;;;;;;;;;8.01;50.59;101168.88;6042703;23;96932;-82
2021/01/02 10:18:28;;;;;;;;;;;;;;;8.12;49.80;101167.84;6056077;23;96545;-82
2021/01/02 10:20:54;;;;;;;;;;;;;;;8.36;49.52;101165.63;6055716;23;96639;-81
2021/01/02 10:23:20;;;;;;;;;;;;;;;8.30;49.68;101168.38;6036245;23;97823;-82
2021/01/02 10:25:45;;;;;;;;;;;;;;;8.31;49.54;101162.22;6035574;23;98100;-82
2021/01/02 10:28:11;;;;;;;;;;;;;;;8.63;48.96;101155.44;6033945;23;97191;-82
2021/01/02 10:30:37;;;;;;;;;;;;;;;8.67;49.08;101167.63;6034015;23;96586;-82
2021/01/02 10:33:04;;;;;;;;;;;;;;;8.69;48.39;101156.16;6035768;23;97746;-82
2021/01/02 10:35:29;;;;;;;;;;;;;;;8.52;49.10;101152.16;6036778;23;97940;-82
2021/01/02 10:37:55;;;;;;;;;;;;;;;8.73;48.85;101149.94;6038068;23;96734;-82
2021/01/02 10:40:21;;;;;;;;;;;;;;;8.56;49.19;101148.56;6039442;23;96773;-81
2021/01/02 10:42:47;;;;;;;;;;;;;;;8.92;48.46;101152.19;6037153;23;98874;-81
2021/01/02 10:45:14;;;;;;;;;;;;;;;8.95;48.63;101145.06;6035841;23;98926;-82
2021/01/02 10:47:40;;;;;;;;;;;;;;;9.10;47.17;101135.94;6039564;23;96667;-82
2021/01/02 10:50:07;;;;;;;;;;;;;;;8.90;48.49;101136.41;6040640;23;96679;-81
2021/01/02 10:52:33;;;;;;;;;;;;;;;8.79;48.41;101136.63;6034989;23;98936;-81
2021/01/02 10:54:59;;;;;;;;;;;;;;;8.91;48.31;101138.13;6036813;23;98820;-81
2021/01/02 10:57:27;;;;;;;;;;;;;;;9.09;48.33;101142.13;6039703;23;97227;-82
2021/01/02 10:59:53;;;;;;;;;;;;;;;9.02;48.19;101136.13;6038559;23;96929;-81
2021/01/02 11:02:20;;;;;;;;;;;;;;;9.31;47.53;101135.44;6040371;23;98769;-82
2021/01/02 11:04:46;;;;;;;;;;;;;;;9.48;47.05;101130.59;6040185;23;99142;-81
2021/01/02 11:07:13;;;;;;;;;;;;;;;9.27;47.58;101132.91;6044797;23;96627;-81
2021/01/02 11:09:38;;;;;;;;;;;;;;;9.03;48.68;101134.34;6042784;23;96816;-81
2021/01/02 11:12:05;;;;;;;;;;;;;;;9.29;47.77;101131.09;6037584;23;99027;-82
2021/01/02 11:14:30;;;;;;;;;;;;;;;9.26;47.67;101126.75;6050478;23;98819;-83
2021/01/02 11:16:57;;;;;;;;;;;;;;;9.38;47.33;101131.75;6055910;23;96765;-82
2021/01/02 11:19:24;;;;;;;;;;;;;;;9.28;47.78;101129.34;6052404;23;96642;-82
2021/01/02 11:21:52;;;;;;;;;;;;;;;9.28;47.37;101124.09;6049847;23;98208;-81
2021/01/02 11:24:20;;;;;;;;;;;;;;;9.27;48.23;101119.72;6049681;23;98849;-81
2021/01/02 11:26:46;;;;;;;;;;;;;;;9.24;48.34;101128.56;6053395;23;96525;-80
2021/01/02 11:29:14;;;;;;;;;;;;;;;9.25;48.14;101124.19;6045136;23;96705;-81
2021/01/02 11:31:40;;;;;;;;;;;;;;;9.04;48.59;101126.41;6041726;23;99849;-82
2021/01/02 11:34:06;;;;;;;;;;;;;;;9.20;48.06;101119.00;6039594;23;97505;-81
2021/01/02 11:36:31;;;;;;;;;;;;;;;9.23;48.14;101121.56;6038244;23;96959;-82
2021/01/02 11:38:57;;;;;;;;;;;;;;;9.34;48.08;101105.47;6041697;23;96639;-82
2021/01/02 11:41:31;;;;;;;;;;;;;;;9.41;48.07;101109.69;6040382;23;99399;-82
2021/01/02 11:43:56;;;;;;;;;;;;;;;9.43;47.75;101113.16;6043788;23;99969;-83
2021/01/02 11:46:26;;;;;;;;;;;;;;;9.36;48.16;101111.59;6043166;23;96759;-83
2021/01/02 11:48:52;;;;;;;;;;;;;;;9.61;47.73;101110.06;6050247;23;97081;-82
2021/01/02 11:51:18;;;;;;;;;;;;;;;9.65;48.05;101108.22;6057202;23;96810;-83
2021/01/02 11:53:43;;;;;;;;;;;;;;;9.78;47.58;101104.34;6056741;23;97697;-82
2021/01/02 11:56:11;;;;;;;;;;;;;;;10.07;46.75;101107.06;6052094;23;96459;-82
2021/01/02 11:58:38;;;;;;;;;;;;;;;9.99;46.96;101107.25;6045982;23;96921;-84
2021/01/02 12:01:04;;;;;;;;;;;;;;;9.84;47.52;101112.09;6052474;23;98269;-83
2021/01/02 12:03:29;;;;;;;;;;;;;;;9.72;47.68;101115.91;6056490;23;97983;-81
2021/01/02 12:05:55;;;;;;;;;;;;;;;9.91;47.32;101111.88;6053817;23;96824;-82
2021/01/02 12:08:21;;;;;;;;;;;;;;;9.73;47.84;101107.09;6052366;23;96765;-82
2021/01/02 12:10:47;;;;;;;;;;;;;;;9.82;47.54;101112.16;6053693;23;97753;-82
2021/01/02 12:13:13;;;;;;;;;;;;;;;9.84;47.53;101114.75;6056047;23;97946;-82
2021/01/02 12:15:39;;;;;;;;;;;;;;;10.11;47.21;101116.63;6057468;23;96478;-83
2021/01/02 12:18:05;;;;;;;;;;;;;;;9.76;47.56;101112.31;6057274;23;96961;-83
2021/01/02 12:20:31;;;;;;;;;;;;;;;9.78;47.78;101112.28;6057040;23;97738;-82
2021/01/02 12:22:57;;;;;;;;;;;;;;;9.81;48.08;101115.69;6056392;23;98186;-82
2021/01/02 12:25:24;;;;;;;;;;;;;;;9.83;47.76;101113.88;6045060;23;96606;-81
2021/01/02 12:27:50;;;;;;;;;;;;;;;9.80;47.44;101113.94;6043521;23;96776;-82
2021/01/02 12:30:16;;;;;;;;;;;;;;;10.08;47.05;101115.84;6038672;23;97104;-83
2021/01/02 12:32:43;;;;;;;;;;;;;;;10.00;47.84;101116.06;6037478;23;98077;-83
2021/01/02 12:35:09;;;;;;;;;;;;;;;10.17;47.11;101120.91;6038001;23;96688;-83
2021/01/02 12:37:35;;;;;;;;;;;;;;;10.18;46.75;101118.22;6040688;23;96649;-82
2021/01/02 12:40:01;;;;;;;;;;;;;;;10.09;47.02;101110.53;6047844;23;97769;-84
2021/01/02 12:42:27;;;;;;;;;;;;;;;9.88;47.70;101116.38;6048345;23;97803;-82
2021/01/02 12:44:52;;;;;;;;;;;;;;;10.32;46.53;101118.69;6051797;23;96574;-81
2021/01/02 12:47:19;;;;;;;;;;;;;;;10.40;46.21;101121.13;6049102;23;96621;-83
2021/01/02 12:49:47;;;;;;;;;;;;;;;10.20;46.82;101128.75;6044675;23;98825;-86
2021/01/02 12:52:13;;;;;;;;;;;;;;;10.26;46.67;101128.56;6050854;23;97060;-84